createdAt,value
2019-03-11T00:01:51.576Z,94.70
2019-03-11T00:04:18.675Z,94.40
2019-03-11T00:06:45.493Z,94.30
2019-03-11T00:09:11.729Z,94.30
2019-03-11T00:11:38.010Z,94.40
2019-03-11T00:14:04.866Z,94.80
2019-03-11T00:16:31.265Z,94.80
2019-03-11T00:18:57.508Z,94.70
2019-03-11T00:21:24.066Z,94.90
2019-03-11T00:23:52.005Z,95.30
2019-03-11T00:26:18.350Z,95.50
2019-03-11T00:28:45.025Z,95.50
2019-03-11T00:31:11.597Z,95.20
2019-03-11T00:33:38.048Z,95.20
2019-03-11T00:36:04.450Z,94.80
2019-03-11T00:38:30.950Z,94.50
2019-03-11T00:40:57.351Z,94.60
2019-03-11T00:43:24.414Z,94.60
2019-03-11T00:45:52.084Z,94.60
2019-03-11T00:48:18.381Z,94.70
2019-03-11T00:50:44.725Z,94.80
2019-03-11T00:53:11.098Z,94.80
2019-03-11T00:55:37.398Z,95.10
2019-03-11T00:58:03.805Z,95.20
2019-03-11T01:00:32.976Z,95.00
2019-03-11T01:02:59.484Z,95.10
2019-03-11T01:05:25.848Z,94.80
2019-03-11T01:07:59.501Z,94.70
2019-03-11T01:10:25.855Z,94.50
2019-03-11T01:12:52.348Z,95.00
2019-03-11T01:15:18.845Z,95.10
2019-03-11T01:17:45.080Z,95.20
2019-03-11T01:20:11.790Z,95.00
2019-03-11T01:22:38.225Z,94.80
2019-03-11T01:25:06.185Z,94.70
2019-03-11T01:27:32.449Z,94.70
2019-03-11T01:29:58.690Z,94.40
2019-03-11T01:32:25.004Z,94.50
2019-03-11T01:34:51.335Z,94.90
2019-03-11T01:37:17.525Z,95.00
2019-03-11T01:39:43.829Z,95.00
2019-03-11T01:42:10.065Z,95.30
2019-03-11T01:44:37.540Z,95.60
2019-03-11T01:47:07.142Z,95.80
2019-03-11T01:49:33.505Z,96.00
2019-03-11T01:51:59.867Z,96.00
2019-03-11T01:54:26.131Z,96.00
2019-03-11T01:56:52.482Z,96.10
2019-03-11T01:59:18.983Z,96.40
2019-03-11T02:01:48.287Z,96.70
2019-03-11T02:04:13.954Z,97.00
2019-03-11T02:06:41.725Z,97.20
2019-03-11T02:09:10.815Z,97.40
2019-03-11T02:11:37.101Z,97.10
2019-03-11T02:14:03.481Z,97.60
2019-03-11T02:16:29.761Z,97.30
2019-03-11T02:18:56.068Z,97.60
2019-03-11T02:21:22.349Z,97.90
2019-03-11T02:23:48.781Z,97.90
2019-03-11T02:26:15.051Z,97.60
2019-03-11T02:28:41.315Z,97.50
2019-03-11T02:31:08.063Z,97.20
2019-03-11T02:33:41.357Z,97.30
2019-03-11T02:36:07.617Z,97.20
2019-03-11T02:38:33.983Z,97.30
2019-03-11T02:41:00.246Z,97.10
2019-03-11T02:43:26.546Z,97.20
2019-03-11T02:45:52.836Z,97.20
2019-03-11T02:48:19.236Z,97.40
2019-03-11T02:50:45.927Z,97.50
2019-03-11T02:53:12.183Z,97.40
2019-03-11T02:55:38.435Z,97.30
2019-03-11T02:58:04.716Z,97.50
2019-03-11T03:00:31.037Z,97.60
2019-03-11T03:03:08.091Z,97.50
2019-03-11T03:05:42.233Z,97.60
2019-03-11T03:08:08.488Z,97.90
2019-03-11T03:10:38.207Z,97.80
2019-03-11T03:13:04.644Z,97.70
2019-03-11T03:15:31.802Z,97.70
2019-03-11T03:17:58.062Z,97.70
2019-03-11T03:20:24.420Z,97.50
2019-03-11T03:22:50.829Z,97.80
2019-03-11T03:25:32.287Z,98.10
2019-03-11T03:27:45.274Z,98.20
2019-03-11T03:30:18.836Z,98.20
2019-03-11T03:32:45.125Z,98.40
2019-03-11T03:35:11.714Z,98.70
2019-03-11T03:37:38.116Z,98.70
2019-03-11T03:40:07.616Z,98.70
2019-03-11T03:42:34.108Z,98.50
2019-03-11T03:45:21.860Z,98.60
2019-03-11T03:47:48.361Z,98.60
2019-03-11T03:50:14.748Z,98.40
2019-03-11T03:52:41.006Z,98.20
2019-03-11T03:55:07.443Z,98.40
2019-03-11T03:57:33.833Z,98.70
2019-03-11T04:00:00.550Z,98.70
2019-03-11T04:02:26.851Z,99.30
2019-03-11T04:04:53.467Z,99.00
2019-03-11T04:07:19.729Z,98.60
2019-03-11T04:09:46.004Z,98.90
2019-03-11T04:12:12.364Z,98.90
2019-03-11T04:14:38.662Z,99.00
2019-03-11T04:17:05.154Z,98.90
2019-03-11T04:19:31.534Z,99.00
2019-03-11T04:21:59.881Z,98.90
2019-03-11T04:24:26.381Z,98.40
2019-03-11T04:26:53.017Z,98.50
2019-03-11T04:29:19.427Z,98.60
2019-03-11T04:31:45.824Z,98.50
2019-03-11T04:34:14.018Z,98.90
2019-03-11T04:36:40.472Z,98.60
2019-03-11T04:39:09.686Z,98.80
2019-03-11T04:41:39.480Z,98.90
2019-03-11T04:44:06.939Z,98.90
2019-03-11T04:46:33.499Z,98.70
2019-03-11T04:48:59.789Z,98.70
2019-03-11T04:51:26.190Z,98.70
2019-03-11T04:53:52.579Z,98.50
2019-03-11T04:56:18.840Z,98.40
2019-03-11T04:58:45.076Z,98.80
2019-03-11T05:01:12.054Z,98.90
2019-03-11T05:03:38.418Z,99.10
2019-03-11T05:06:04.668Z,98.90
2019-03-11T05:08:31.037Z,98.70
2019-03-11T05:11:00.799Z,98.80
2019-03-11T05:13:27.380Z,98.70
2019-03-11T05:15:54.923Z,98.90
2019-03-11T05:18:22.116Z,98.80
2019-03-11T05:20:48.983Z,98.30
2019-03-11T05:23:15.350Z,98.40
2019-03-11T05:25:43.664Z,99.00
2019-03-11T05:28:10.222Z,99.10
2019-03-11T05:30:36.813Z,99.00
2019-03-11T05:33:03.684Z,99.00
2019-03-11T05:35:29.982Z,99.50
2019-03-11T05:37:56.365Z,99.50
2019-03-11T05:40:23.007Z,99.60
2019-03-11T05:42:49.496Z,99.40
2019-03-11T05:45:18.023Z,99.60
2019-03-11T05:47:44.840Z,99.10
2019-03-11T05:50:17.521Z,99.10
2019-03-11T05:52:44.067Z,99.00
2019-03-11T05:55:11.230Z,99.60
2019-03-11T05:57:37.671Z,99.50
2019-03-11T06:00:23.715Z,99.50
2019-03-11T06:02:50.193Z,99.50
2019-03-11T06:05:16.670Z,99.50
2019-03-11T06:07:43.009Z,99.50
2019-03-11T06:10:11.201Z,99.50
2019-03-11T06:12:37.571Z,99.70
2019-03-11T06:15:06.987Z,99.90
2019-03-11T06:17:33.427Z,99.90
2019-03-11T06:20:04.604Z,99.60
2019-03-11T06:22:31.234Z,99.90
2019-03-11T06:24:57.718Z,99.80
2019-03-11T06:27:25.508Z,99.70
2019-03-11T06:29:52.252Z,99.40
2019-03-11T06:32:20.355Z,99.50
2019-03-11T06:34:46.686Z,99.40
2019-03-11T06:37:13.255Z,99.80
2019-03-11T06:39:39.633Z,99.90
2019-03-11T06:42:08.961Z,99.90
2019-03-11T06:44:35.351Z,99.60
2019-03-11T06:47:01.728Z,99.60
2019-03-11T06:49:27.998Z,99.70
2019-03-11T06:51:54.388Z,99.80
2019-03-11T06:54:22.199Z,99.50
2019-03-11T06:56:48.836Z,99.30
2019-03-11T06:59:18.583Z,99.30
2019-03-11T07:01:44.995Z,99.30
2019-03-11T07:04:16.168Z,99.00
2019-03-11T07:06:39.904Z,99.30
2019-03-11T07:09:07.128Z,99.20
2019-03-11T07:11:33.308Z,98.90
2019-03-11T07:13:59.544Z,99.20
2019-03-11T07:16:27.699Z,98.40
2019-03-11T07:18:54.641Z,98.30
2019-03-11T07:21:21.059Z,98.20
2019-03-11T07:23:47.494Z,98.50
2019-03-11T07:26:13.777Z,98.40
2019-03-11T07:28:40.054Z,98.50
2019-03-11T07:31:06.444Z,98.60
2019-03-11T07:33:32.711Z,98.30
2019-03-11T07:36:00.236Z,98.20
2019-03-11T07:38:26.560Z,98.20
2019-03-11T07:40:52.783Z,98.10
2019-03-11T07:43:19.252Z,97.90
2019-03-11T07:45:45.556Z,97.80
2019-03-11T07:48:11.812Z,97.80
2019-03-11T07:50:40.324Z,98.00
2019-03-11T07:53:06.681Z,97.70
2019-03-11T07:55:33.107Z,97.80
2019-03-11T07:58:00.356Z,97.80
2019-03-11T08:00:26.971Z,97.90
2019-03-11T08:02:53.580Z,97.80
2019-03-11T08:05:24.375Z,97.60
2019-03-11T08:07:50.659Z,96.90
2019-03-11T08:10:24.154Z,96.90
2019-03-11T08:12:50.612Z,97.30
2019-03-11T08:15:17.021Z,96.80
2019-03-11T08:17:44.486Z,97.10
2019-03-11T08:20:13.419Z,97.00
2019-03-11T08:22:39.873Z,97.10
2019-03-11T08:25:10.494Z,97.00
2019-03-11T08:27:39.639Z,96.80
2019-03-11T08:30:12.879Z,96.80
2019-03-11T08:32:39.238Z,96.50
2019-03-11T08:35:07.573Z,96.60
2019-03-11T08:37:35.971Z,96.70
2019-03-11T08:40:05.494Z,96.50
2019-03-11T08:42:32.008Z,96.30
2019-03-11T08:45:00.459Z,96.20
2019-03-11T08:47:26.839Z,96.10
2019-03-11T08:49:53.251Z,96.30
2019-03-11T08:52:19.513Z,96.80
2019-03-11T08:54:45.902Z,97.00
2019-03-11T08:57:12.286Z,97.50
2019-03-11T08:59:38.564Z,98.00
2019-03-11T09:02:04.997Z,97.70
2019-03-11T09:04:31.353Z,97.70
2019-03-11T09:06:57.754Z,97.70
2019-03-11T09:09:24.084Z,97.70
2019-03-11T09:11:50.471Z,97.80
2019-03-11T09:14:16.823Z,97.70
2019-03-11T09:16:43.091Z,97.20
2019-03-11T09:19:09.410Z,97.80
2019-03-11T09:21:35.952Z,97.70
2019-03-11T09:24:02.312Z,98.20
2019-03-11T09:26:28.720Z,98.00
2019-03-11T09:28:55.134Z,97.70
2019-03-11T09:31:21.483Z,97.20
2019-03-11T09:33:47.945Z,97.50
2019-03-11T09:36:14.292Z,97.30
2019-03-11T09:38:40.576Z,97.20
2019-03-11T09:41:07.053Z,97.40
2019-03-11T09:43:33.519Z,97.20
2019-03-11T09:45:59.821Z,97.40
2019-03-11T09:48:26.247Z,97.40
2019-03-11T09:50:52.733Z,97.50
2019-03-11T09:53:19.028Z,97.20
2019-03-11T09:55:45.327Z,97.40
2019-03-11T09:58:11.781Z,97.90
2019-03-11T10:00:38.185Z,97.40
2019-03-11T10:03:04.698Z,97.40
2019-03-11T10:05:31.107Z,97.70
2019-03-11T10:07:57.637Z,97.70
2019-03-11T10:10:28.000Z,97.80
2019-03-11T10:12:54.408Z,97.40
2019-03-11T10:15:21.486Z,97.80
2019-03-11T10:17:49.480Z,98.00
2019-03-11T10:20:19.795Z,98.00
2019-03-11T10:22:46.892Z,97.90
2019-03-11T10:25:18.901Z,97.60
2019-03-11T10:27:45.309Z,98.00
2019-03-11T10:30:18.317Z,98.20
2019-03-11T10:32:46.734Z,97.90
2019-03-11T10:35:30.735Z,97.50
2019-03-11T10:37:44.411Z,96.90
2019-03-11T10:40:22.298Z,97.20
2019-03-11T10:42:48.819Z,97.40
2019-03-11T10:45:15.806Z,97.40
2019-03-11T10:47:42.343Z,97.30
2019-03-11T10:50:11.006Z,97.10
2019-03-11T10:52:37.486Z,96.50
2019-03-11T10:55:12.034Z,96.50
2019-03-11T10:57:38.462Z,97.00
2019-03-11T11:00:14.929Z,96.50
2019-03-11T11:02:41.435Z,95.70
2019-03-11T11:05:08.649Z,95.80
2019-03-11T11:07:35.054Z,95.80
2019-03-11T11:10:02.165Z,95.90
2019-03-11T11:12:30.437Z,95.80
2019-03-11T11:14:57.036Z,96.00
2019-03-11T11:17:23.554Z,95.30
2019-03-11T11:19:49.908Z,95.20
2019-03-11T11:22:16.456Z,95.30
2019-03-11T11:24:42.836Z,95.20
2019-03-11T11:27:09.238Z,95.00
2019-03-11T11:29:35.850Z,95.00
2019-03-11T11:32:02.573Z,94.40
2019-03-11T11:34:31.355Z,94.10
2019-03-11T11:36:59.073Z,93.90
2019-03-11T11:39:25.348Z,93.10
2019-03-11T11:41:53.190Z,92.90
2019-03-11T11:44:19.541Z,92.60
2019-03-11T11:46:46.829Z,93.30
2019-03-11T11:49:13.237Z,93.60
2019-03-11T11:51:39.667Z,93.70
2019-03-11T11:54:05.957Z,93.50
2019-03-11T11:56:32.238Z,92.80
2019-03-11T11:58:58.772Z,92.80
2019-03-11T12:01:25.220Z,92.90
2019-03-11T12:03:51.658Z,93.20
2019-03-11T12:06:18.131Z,92.90
2019-03-11T12:08:44.433Z,92.90
2019-03-11T12:11:10.792Z,93.00
2019-03-11T12:13:39.009Z,92.70
2019-03-11T12:16:05.530Z,92.10
2019-03-11T12:18:32.034Z,92.50
2019-03-11T12:20:58.337Z,91.90
2019-03-11T12:23:24.749Z,92.20
2019-03-11T12:25:52.957Z,92.10
2019-03-11T12:28:19.381Z,92.10
2019-03-11T12:30:45.959Z,91.90
2019-03-11T12:33:12.248Z,92.30
2019-03-11T12:35:38.657Z,92.50
2019-03-11T12:38:05.132Z,92.40
2019-03-11T12:40:31.521Z,91.60
2019-03-11T12:42:58.257Z,91.30
2019-03-11T12:45:25.511Z,91.30
2019-03-11T12:47:51.975Z,91.30
2019-03-11T12:50:32.236Z,91.30
2019-03-11T12:52:58.611Z,91.30
2019-03-11T12:55:25.060Z,91.60
2019-03-11T12:57:51.549Z,91.80
2019-03-11T13:00:18.974Z,92.30
2019-03-11T13:02:45.555Z,92.30
2019-03-11T13:05:12.290Z,92.30
2019-03-11T13:07:38.780Z,92.40
2019-03-11T13:10:09.026Z,92.20
2019-03-11T13:12:35.336Z,92.60
2019-03-11T13:15:01.863Z,92.70
2019-03-11T13:17:28.218Z,91.90
2019-03-11T13:19:54.646Z,91.60
2019-03-11T13:22:21.331Z,91.70
2019-03-11T13:24:47.798Z,92.00
2019-03-11T13:27:14.175Z,91.80
2019-03-11T13:29:40.456Z,91.90
2019-03-11T13:32:07.079Z,91.60
2019-03-11T13:34:33.327Z,91.30
2019-03-11T13:36:59.639Z,91.40
2019-03-11T13:39:25.893Z,91.10
2019-03-11T13:41:53.199Z,91.20
2019-03-11T13:44:19.766Z,90.80
2019-03-11T13:46:46.240Z,90.60
2019-03-11T13:49:12.769Z,90.50
2019-03-11T13:51:39.091Z,90.40
2019-03-11T13:54:05.460Z,90.50
2019-03-11T13:56:32.231Z,90.70
2019-03-11T13:58:58.499Z,90.80
2019-03-11T14:01:24.721Z,90.50
2019-03-11T14:03:51.145Z,90.10
2019-03-11T14:06:17.494Z,90.40
2019-03-11T14:08:43.886Z,89.60
2019-03-11T14:11:10.286Z,89.30
2019-03-11T14:13:36.647Z,89.30
2019-03-11T14:16:04.847Z,89.60
2019-03-11T14:18:31.252Z,89.30
2019-03-11T14:20:57.621Z,89.60
2019-03-11T14:23:23.953Z,89.40
2019-03-11T14:25:50.201Z,89.10
2019-03-11T14:28:16.631Z,89.30
2019-03-11T14:30:43.119Z,89.90
2019-03-11T14:33:09.486Z,88.40
2019-03-11T14:35:35.849Z,89.60
2019-03-11T14:38:02.252Z,90.20
2019-03-11T14:40:28.705Z,91.20
2019-03-11T14:42:55.026Z,91.10
2019-03-11T14:45:22.254Z,90.90
2019-03-11T14:47:48.713Z,90.80
2019-03-11T14:50:16.118Z,91.50
2019-03-11T14:52:42.382Z,91.80
2019-03-11T14:55:09.971Z,91.60
2019-03-11T14:57:36.381Z,91.60
2019-03-11T15:00:09.412Z,91.30
2019-03-11T15:02:35.800Z,91.40
2019-03-11T15:05:02.520Z,91.40
2019-03-11T15:07:28.988Z,91.50
2019-03-11T15:09:55.525Z,91.70
2019-03-11T15:12:21.781Z,92.30
2019-03-11T15:14:48.525Z,92.30
2019-03-11T15:17:14.933Z,92.70
2019-03-11T15:19:41.312Z,93.30
2019-03-11T15:22:07.684Z,93.40
2019-03-11T15:24:34.052Z,93.20
2019-03-11T15:27:00.482Z,93.60
2019-03-11T15:29:26.939Z,93.50
2019-03-11T15:31:53.386Z,93.60
2019-03-11T15:34:22.862Z,93.10
2019-03-11T15:36:49.358Z,93.30
2019-03-11T15:39:16.060Z,93.40
2019-03-11T15:41:42.437Z,93.60
2019-03-11T15:44:08.664Z,93.80
2019-03-11T15:46:39.164Z,93.90
2019-03-11T15:49:03.452Z,93.80
2019-03-11T15:51:36.657Z,93.60
2019-03-11T15:53:57.885Z,93.90
2019-03-11T15:56:26.513Z,94.00
2019-03-11T15:58:52.394Z,93.90
2019-03-11T16:01:20.618Z,93.60
2019-03-11T16:03:47.315Z,93.60
2019-03-11T16:06:14.031Z,93.60
2019-03-11T16:08:40.489Z,93.40
2019-03-11T16:11:07.010Z,93.40
2019-03-11T16:13:35.693Z,93.40
2019-03-11T16:16:02.159Z,93.10
2019-03-11T16:18:28.679Z,93.00
2019-03-11T16:20:55.450Z,93.20
2019-03-11T16:23:23.002Z,93.30
2019-03-11T16:25:51.686Z,93.10
2019-03-11T16:28:17.987Z,92.90
2019-03-11T16:30:44.594Z,93.20
2019-03-11T16:33:10.977Z,93.20
2019-03-11T16:35:37.474Z,93.20
2019-03-11T16:38:03.933Z,93.80
2019-03-11T16:40:30.287Z,93.60
2019-03-11T16:42:56.714Z,93.60
2019-03-11T16:45:23.288Z,93.60
2019-03-11T16:47:49.680Z,93.40
2019-03-11T16:50:20.498Z,93.30
2019-03-11T16:52:46.970Z,93.50
2019-03-11T16:55:19.585Z,93.40
2019-03-11T16:57:46.014Z,93.40
2019-03-11T17:00:22.106Z,93.50
2019-03-11T17:02:49.191Z,93.30
2019-03-11T17:05:15.670Z,93.30
2019-03-11T17:07:42.265Z,93.20
2019-03-11T17:10:14.305Z,93.20
2019-03-11T17:12:40.560Z,93.60
2019-03-11T17:15:07.886Z,93.50
2019-03-11T17:17:34.395Z,94.20
2019-03-11T17:20:00.767Z,94.40
2019-03-11T17:22:27.264Z,94.10
2019-03-11T17:24:53.626Z,94.10
2019-03-11T17:27:19.984Z,94.10
2019-03-11T17:29:46.266Z,94.50
2019-03-11T17:32:18.461Z,94.80
2019-03-11T17:34:45.074Z,94.40
2019-03-11T17:37:11.530Z,95.10
2019-03-11T17:39:38.547Z,94.70
2019-03-11T17:42:05.101Z,94.60
2019-03-11T17:44:31.470Z,94.50
2019-03-11T17:46:57.873Z,94.50
2019-03-11T17:49:24.267Z,94.80
2019-03-11T17:51:50.538Z,94.70
2019-03-11T17:54:16.911Z,94.60
2019-03-11T17:56:43.503Z,94.40
2019-03-11T17:59:10.035Z,94.70
2019-03-11T18:01:36.503Z,94.80
2019-03-11T18:04:02.933Z,94.60
2019-03-11T18:06:29.419Z,94.60
2019-03-11T18:08:55.753Z,94.80
2019-03-11T18:11:22.747Z,94.70
2019-03-11T18:13:49.135Z,94.70
2019-03-11T18:16:15.691Z,94.80
2019-03-11T18:18:42.220Z,94.90
2019-03-11T18:21:08.739Z,95.00
2019-03-11T18:23:35.291Z,94.60
2019-03-11T18:26:01.670Z,94.40
2019-03-11T18:28:28.228Z,94.50
2019-03-11T18:30:54.531Z,94.70
2019-03-11T18:33:21.476Z,94.90
2019-03-11T18:35:48.106Z,94.70
2019-03-11T18:38:15.004Z,94.90
2019-03-11T18:40:41.378Z,94.90
2019-03-11T18:43:07.749Z,94.60
2019-03-11T18:45:34.164Z,95.00
2019-03-11T18:48:00.659Z,95.30
2019-03-11T18:50:29.889Z,95.20
2019-03-11T18:52:56.309Z,95.20
2019-03-11T18:55:24.664Z,95.00
2019-03-11T18:57:51.215Z,94.80
2019-03-11T19:00:18.845Z,94.90
2019-03-11T19:02:45.437Z,94.80
2019-03-11T19:05:19.308Z,95.00
2019-03-11T19:07:45.935Z,94.90
2019-03-11T19:10:14.441Z,95.20
2019-03-11T19:12:41.132Z,95.50
2019-03-11T19:15:15.623Z,95.60
2019-03-11T19:17:42.123Z,95.90
2019-03-11T19:20:13.596Z,96.10
2019-03-11T19:22:42.273Z,95.90
2019-03-11T19:25:10.761Z,96.00
2019-03-11T19:27:36.915Z,95.90
2019-03-11T19:30:07.021Z,95.70
2019-03-11T19:32:34.970Z,95.60
2019-03-11T19:35:05.977Z,95.60
2019-03-11T19:37:32.871Z,95.50
2019-03-11T19:39:59.392Z,95.60
2019-03-11T19:42:25.832Z,95.50
2019-03-11T19:44:53.951Z,95.50
2019-03-11T19:47:20.749Z,95.60
2019-03-11T19:49:47.279Z,95.80
2019-03-11T19:52:13.849Z,95.80
2019-03-11T19:54:41.797Z,95.60
2019-03-11T19:57:08.229Z,95.50
2019-03-11T19:59:36.169Z,95.40
2019-03-11T20:02:02.745Z,96.10
2019-03-11T20:04:29.245Z,96.30
2019-03-11T20:06:55.498Z,96.30
2019-03-11T20:09:22.084Z,96.50
2019-03-11T20:11:48.373Z,96.30
2019-03-11T20:14:14.804Z,96.20
2019-03-11T20:16:41.410Z,95.90
2019-03-11T20:19:07.992Z,95.80
2019-03-11T20:21:34.544Z,95.90
2019-03-11T20:24:00.951Z,96.10
2019-03-11T20:26:27.358Z,95.80
2019-03-11T20:28:54.190Z,95.50
2019-03-11T20:31:20.863Z,95.60
2019-03-11T20:33:47.236Z,95.60
2019-03-11T20:36:20.818Z,95.20
2019-03-11T20:38:42.920Z,95.00
2019-03-11T20:41:09.880Z,94.80
2019-03-11T20:43:36.552Z,94.40
2019-03-11T20:46:06.550Z,94.10
2019-03-11T20:48:33.147Z,94.70
2019-03-11T20:50:59.637Z,95.10
2019-03-11T20:53:28.997Z,95.10
2019-03-11T20:55:55.356Z,94.80
2019-03-11T20:58:22.004Z,94.70
2019-03-11T21:00:49.103Z,94.80
2019-03-11T21:03:15.634Z,94.60
2019-03-11T21:05:47.099Z,94.90
2019-03-11T21:08:13.867Z,94.70
2019-03-11T21:10:40.293Z,94.70
2019-03-11T21:13:06.920Z,94.70
2019-03-11T21:15:33.537Z,95.20
2019-03-11T21:18:00.326Z,95.10
2019-03-11T21:20:27.284Z,95.00
2019-03-11T21:22:54.838Z,95.10
2019-03-11T21:25:21.304Z,95.10
2019-03-11T21:27:47.813Z,95.30
2019-03-11T21:30:16.262Z,95.40
2019-03-11T21:32:44.835Z,95.10
2019-03-11T21:35:11.687Z,94.60
2019-03-11T21:37:38.170Z,94.60
2019-03-11T21:40:23.650Z,94.50
2019-03-11T21:42:50.366Z,94.40
2019-03-11T21:48:07.783Z,94.40
2019-03-11T21:50:34.254Z,94.60
2019-03-11T21:53:00.858Z,94.00
2019-03-11T21:55:27.499Z,94.00
2019-03-11T21:57:53.963Z,94.30
2019-03-11T22:00:33.563Z,94.60
2019-03-11T22:02:53.045Z,94.60
2019-03-11T22:05:21.942Z,94.60
2019-03-11T22:07:48.665Z,94.50
2019-03-11T22:10:16.345Z,94.60
2019-03-11T22:12:42.874Z,94.80
2019-03-11T22:15:20.631Z,94.70
2019-03-11T22:17:47.129Z,94.60
2019-03-11T22:20:16.229Z,94.80
2019-03-11T22:22:42.721Z,94.70
2019-03-11T22:25:11.305Z,94.60
2019-03-11T22:27:39.652Z,94.70
2019-03-11T22:30:20.538Z,94.90
2019-03-11T22:32:47.050Z,95.10
2019-03-11T22:35:13.946Z,95.00
2019-03-11T22:37:40.437Z,95.00
2019-03-11T22:40:09.205Z,95.20
2019-03-11T22:42:35.523Z,95.60
2019-03-11T22:45:03.379Z,96.00
2019-03-11T22:47:29.659Z,96.20
2019-03-11T22:49:56.109Z,96.50
2019-03-11T22:52:22.533Z,96.60
2019-03-11T22:54:48.889Z,96.50
2019-03-11T22:57:15.268Z,96.30
2019-03-11T22:59:41.768Z,96.20
2019-03-11T23:02:11.681Z,96.20
2019-03-11T23:04:37.456Z,96.30
2019-03-11T23:07:04.248Z,96.10
2019-03-11T23:09:30.967Z,96.20
2019-03-11T23:11:57.218Z,96.20
2019-03-11T23:14:23.602Z,96.50
2019-03-11T23:16:49.982Z,96.30
2019-03-11T23:19:16.469Z,96.10
2019-03-11T23:21:42.774Z,96.50
2019-03-11T23:24:11.254Z,96.50
2019-03-11T23:26:37.636Z,96.50
2019-03-11T23:29:04.116Z,96.30
2019-03-11T23:31:30.483Z,96.90
2019-03-11T23:33:56.765Z,96.90
2019-03-11T23:36:23.072Z,97.30
2019-03-11T23:38:49.316Z,96.90
2019-03-11T23:41:15.610Z,96.80
2019-03-11T23:43:41.979Z,97.00
2019-03-11T23:46:08.440Z,96.80
2019-03-11T23:48:38.202Z,96.60
2019-03-11T23:51:04.691Z,96.40
2019-03-11T23:53:31.057Z,96.50
2019-03-11T23:55:57.313Z,96.20
2019-03-11T23:58:23.583Z,96.20
